createdAt,value
2023-02-11T00:01:13.710Z,-6.52
2023-02-11T00:03:41.459Z,-6.94
2023-02-11T00:06:11.976Z,-6.71
2023-02-11T00:08:39.729Z,-6.73
2023-02-11T00:11:07.810Z,-6.61
2023-02-11T00:13:35.472Z,-7.22
2023-02-11T00:16:09.917Z,-7.12
2023-02-11T00:18:37.934Z,-7.29
2023-02-11T00:21:10.189Z,-7.55
2023-02-11T00:23:37.947Z,-7.82
2023-02-11T00:26:12.511Z,-7.78
2023-02-11T00:28:41.375Z,-7.74
2023-02-11T00:31:12.291Z,-7.59
2023-02-11T00:33:40.433Z,-7.59
2023-02-11T00:36:11.284Z,-7.91
2023-02-11T00:38:39.120Z,-7.37
2023-02-11T00:41:08.025Z,-6.95
2023-02-11T00:43:36.210Z,-7.11
2023-02-11T00:46:04.102Z,-7.45
2023-02-11T00:48:32.473Z,-7.67
2023-02-11T00:51:02.202Z,-7.57
2023-02-11T00:53:30.437Z,-7.96
2023-02-11T00:55:58.238Z,-7.52
2023-02-11T00:58:27.345Z,-7.50
2023-02-11T01:00:55.956Z,-7.82
2023-02-11T01:03:23.910Z,-7.34
2023-02-11T01:05:52.027Z,-7.56
2023-02-11T01:08:20.012Z,-7.34
2023-02-11T01:11:15.077Z,-7.14
2023-02-11T01:13:46.214Z,-7.30
2023-02-11T01:16:14.106Z,-7.16
2023-02-11T01:18:44.292Z,-7.24
2023-02-11T01:21:12.167Z,-7.11
2023-02-11T01:23:39.873Z,-7.13
2023-02-11T01:26:07.667Z,-7.13
2023-02-11T01:28:35.451Z,-6.84
2023-02-11T01:31:03.450Z,-6.74
2023-02-11T01:33:33.800Z,-7.50
2023-02-11T01:36:03.071Z,-7.29
2023-02-11T01:38:31.067Z,-7.13
2023-02-11T01:41:00.817Z,-6.95
2023-02-11T01:43:34.229Z,-7.12
2023-02-11T01:46:05.101Z,-6.92
2023-02-11T01:48:35.766Z,-7.08
2023-02-11T01:51:27.700Z,-7.22
2023-02-11T01:54:15.103Z,-7.67
2023-02-11T01:57:04.053Z,-7.87
2023-02-11T01:59:46.413Z,-7.70
2023-02-11T02:02:15.747Z,-7.74
2023-02-11T02:05:15.698Z,-7.78
2023-02-11T02:07:49.738Z,-8.50
2023-02-11T02:10:19.242Z,-7.84
2023-02-11T02:12:47.216Z,-8.55
2023-02-11T02:15:33.533Z,-7.84
2023-02-11T02:18:41.053Z,-7.43
2023-02-11T02:21:34.564Z,-8.21
2023-02-11T02:24:23.030Z,-8.51
2023-02-11T02:27:20.500Z,-8.62
2023-02-11T02:29:54.255Z,-8.96
2023-02-11T02:32:46.346Z,-8.34
2023-02-11T02:35:26.290Z,-8.34
2023-02-11T02:38:08.647Z,-8.30
2023-02-11T02:40:46.667Z,-8.20
2023-02-11T02:43:14.395Z,-8.34
2023-02-11T02:45:42.113Z,-8.29
2023-02-11T02:48:28.599Z,-7.85
2023-02-11T02:51:13.653Z,-7.89
2023-02-11T02:54:18.984Z,-8.53
2023-02-11T02:57:05.058Z,-9.19
2023-02-11T02:59:46.121Z,-8.72
2023-02-11T03:02:19.747Z,-8.34
2023-02-11T03:04:53.568Z,-9.44
2023-02-11T03:07:29.500Z,-8.64
2023-02-11T03:10:11.199Z,-8.17
2023-02-11T03:12:38.999Z,-8.00
2023-02-11T03:15:07.146Z,-7.92
2023-02-11T03:17:35.312Z,-7.93
2023-02-11T03:20:04.433Z,-8.45
2023-02-11T03:23:15.718Z,-8.34
2023-02-11T03:25:51.073Z,-8.86
2023-02-11T03:28:32.529Z,-8.31
2023-02-11T03:31:16.400Z,-8.30
2023-02-11T03:34:06.108Z,-8.23
2023-02-11T03:36:39.058Z,-8.64
2023-02-11T03:39:06.788Z,-9.02
2023-02-11T03:41:34.478Z,-8.84
2023-02-11T03:44:02.188Z,-9.13
2023-02-11T03:46:35.130Z,-8.34
2023-02-11T03:49:04.628Z,-8.65
2023-02-11T03:51:32.404Z,-8.76
2023-02-11T03:54:01.807Z,-9.25
2023-02-11T03:56:31.135Z,-9.31
2023-02-11T03:58:58.894Z,-8.64
2023-02-11T04:01:26.699Z,-8.86
2023-02-11T04:03:54.446Z,-8.91
2023-02-11T04:06:22.215Z,-8.67
2023-02-11T04:08:49.968Z,-9.50
2023-02-11T04:11:17.752Z,-9.13
2023-02-11T04:13:45.447Z,-9.22
2023-02-11T04:16:13.237Z,-9.19
2023-02-11T04:18:40.952Z,-8.75
2023-02-11T04:21:09.346Z,-8.64
2023-02-11T04:23:37.117Z,-8.63
2023-02-11T04:26:05.028Z,-9.12
2023-02-11T04:28:32.779Z,-8.51
2023-02-11T04:31:00.616Z,-9.00
2023-02-11T04:33:28.345Z,-8.70
2023-02-11T04:35:56.126Z,-8.84
2023-02-11T04:38:26.540Z,-9.47
2023-02-11T04:40:54.315Z,-9.24
2023-02-11T04:43:22.009Z,-8.75
2023-02-11T04:45:50.148Z,-9.58
2023-02-11T04:48:18.025Z,-9.30
2023-02-11T04:50:45.778Z,-9.59
2023-02-11T04:53:13.478Z,-9.75
2023-02-11T04:55:41.249Z,-9.55
2023-02-11T04:58:08.947Z,-9.86
2023-02-11T05:00:36.686Z,-9.19
2023-02-11T05:03:04.365Z,-9.49
2023-02-11T05:05:32.118Z,-9.44
2023-02-11T05:07:59.817Z,-9.22
2023-02-11T05:10:27.885Z,-9.49
2023-02-11T05:12:56.166Z,-9.06
2023-02-11T05:15:25.116Z,-8.90
2023-02-11T05:17:52.904Z,-8.56
2023-02-11T05:20:20.731Z,-8.84
2023-02-11T05:22:48.507Z,-8.96
2023-02-11T05:25:16.202Z,-10.12
2023-02-11T05:27:43.923Z,-9.36
2023-02-11T05:30:11.920Z,-8.92
2023-02-11T05:32:40.133Z,-8.99
2023-02-11T05:35:09.099Z,-8.90
2023-02-11T05:37:36.915Z,-8.82
2023-02-11T05:40:05.096Z,-8.58
2023-02-11T05:42:32.896Z,-8.66
2023-02-11T05:45:00.673Z,-8.76
2023-02-11T05:47:28.378Z,-8.73
2023-02-11T05:49:56.053Z,-8.71
2023-02-11T05:52:23.952Z,-8.76
2023-02-11T07:23:58.390Z,7.95
2023-02-11T07:26:26.161Z,9.01
2023-02-11T07:28:53.904Z,9.39
2023-02-11T07:31:23.885Z,10.08
2023-02-11T07:33:52.812Z,10.98
2023-02-11T07:36:20.569Z,10.75
2023-02-11T07:38:48.449Z,10.71
2023-02-11T07:41:18.216Z,10.79
2023-02-11T07:43:46.049Z,10.51
2023-02-11T07:46:18.902Z,9.93
2023-02-11T07:48:46.878Z,9.71
2023-02-11T07:51:18.243Z,9.66
2023-02-11T07:53:46.062Z,9.98
2023-02-11T07:56:14.483Z,9.48
2023-02-11T07:58:43.152Z,9.83
2023-02-11T08:01:13.138Z,10.50
2023-02-11T08:03:42.759Z,11.57
2023-02-11T08:06:12.615Z,12.32
2023-02-11T08:08:40.343Z,12.55
2023-02-11T08:11:08.944Z,12.40
2023-02-11T08:13:36.712Z,12.61
2023-02-11T08:16:05.055Z,12.92
2023-02-11T08:18:33.267Z,13.55
2023-02-11T08:21:07.964Z,14.34
2023-02-11T08:23:39.367Z,14.46
2023-02-11T08:26:09.378Z,15.01
2023-02-11T08:28:37.903Z,15.63
2023-02-11T08:31:10.315Z,15.89
2023-02-11T08:33:40.295Z,14.55
2023-02-11T08:36:12.479Z,14.09
2023-02-11T08:38:40.206Z,13.79
2023-02-11T08:41:08.005Z,12.53
2023-02-11T08:43:36.307Z,11.37
2023-02-11T08:46:04.174Z,9.30
2023-02-11T08:48:31.992Z,7.47
2023-02-11T08:50:59.853Z,7.07
2023-02-11T08:53:27.556Z,7.05
2023-02-11T08:55:55.420Z,7.18
2023-02-11T08:58:23.150Z,9.67
2023-02-11T09:00:51.321Z,11.89
2023-02-11T09:03:19.136Z,13.98
2023-02-11T09:05:48.177Z,15.26
2023-02-11T09:08:16.511Z,15.29
2023-02-11T09:10:44.300Z,14.12
2023-02-11T09:13:12.219Z,12.47
2023-02-11T09:15:39.974Z,10.75
2023-02-11T09:18:07.672Z,9.32
2023-02-11T09:20:35.369Z,8.37
2023-02-11T09:23:03.137Z,6.93
2023-02-11T09:25:31.032Z,5.19
2023-02-11T09:27:58.752Z,4.66
2023-02-11T09:30:26.593Z,3.55
2023-02-11T09:32:54.399Z,2.68
2023-02-11T09:35:22.067Z,2.37
2023-02-11T09:37:49.835Z,1.50
2023-02-11T09:40:17.636Z,0.55
2023-02-11T09:42:46.436Z,-1.54
2023-02-11T09:45:28.151Z,0.04
2023-02-11T09:48:00.993Z,-0.40
2023-02-11T09:50:55.833Z,-0.70
2023-02-11T09:53:28.394Z,-1.54
2023-02-11T09:55:59.471Z,-0.84
2023-02-11T09:58:33.952Z,-1.55
2023-02-11T10:01:08.960Z,-0.50
2023-02-11T10:03:58.621Z,-0.84
2023-02-11T10:06:44.923Z,-0.84
2023-02-11T10:09:30.627Z,-1.63
2023-02-11T10:12:55.432Z,-1.65
2023-02-11T10:15:45.496Z,-0.71
2023-02-11T10:18:25.167Z,-1.37
2023-02-11T10:21:16.849Z,-1.68
2023-02-11T10:23:46.914Z,-1.70
2023-02-11T10:26:18.493Z,-1.25
2023-02-11T10:28:48.140Z,-1.71
2023-02-11T10:31:22.981Z,-1.16
2023-02-11T10:34:00.433Z,-0.92
2023-02-11T10:36:30.049Z,-1.05
2023-02-11T10:39:02.235Z,-0.37
2023-02-11T10:41:32.827Z,-0.73
2023-02-11T10:44:00.943Z,-1.25
2023-02-11T10:46:33.836Z,-0.29
2023-02-11T10:49:03.356Z,-1.13
2023-02-11T10:51:34.327Z,-1.18
2023-02-11T10:54:05.383Z,-0.98
2023-02-11T10:56:36.184Z,-0.54
2023-02-11T10:59:22.225Z,0.56
2023-02-11T11:01:54.113Z,0.01
2023-02-11T11:04:32.144Z,-0.19
2023-02-11T11:07:10.212Z,0.46
2023-02-11T11:09:55.067Z,0.38
2023-02-11T11:12:36.285Z,0.83
2023-02-11T11:15:10.066Z,0.25
2023-02-11T11:17:38.229Z,0.18
2023-02-11T11:20:28.343Z,0.70
2023-02-11T11:23:31.832Z,0.49
2023-02-11T11:26:12.525Z,0.71
2023-02-11T11:28:41.390Z,0.71
2023-02-11T11:31:14.439Z,0.69
2023-02-11T11:33:43.696Z,0.09
2023-02-11T11:36:17.487Z,0.79
2023-02-11T11:38:58.910Z,0.73
2023-02-11T11:41:31.194Z,0.35
2023-02-11T11:44:30.464Z,0.88
2023-02-11T11:47:13.521Z,0.16
2023-02-11T11:49:56.632Z,0.39
2023-02-11T11:52:42.927Z,1.12
2023-02-11T11:55:23.197Z,2.06
2023-02-11T11:57:50.971Z,1.83
2023-02-11T12:00:28.594Z,1.62
2023-02-11T12:03:18.809Z,1.86
2023-02-11T12:05:59.623Z,2.02
2023-02-11T12:08:45.973Z,1.37
2023-02-11T12:11:45.643Z,1.94
2023-02-11T12:14:20.875Z,1.78
2023-02-11T12:17:07.541Z,2.37
2023-02-11T12:20:14.302Z,1.38
2023-02-11T12:22:48.438Z,1.38
2023-02-11T12:25:30.904Z,2.21
2023-02-11T12:28:27.231Z,2.39
2023-02-11T12:31:13.977Z,2.61
2023-02-11T12:33:56.991Z,2.85
2023-02-11T12:36:32.035Z,2.47
2023-02-11T12:39:24.039Z,2.60
2023-02-11T12:42:42.090Z,2.82
2023-02-11T12:45:12.707Z,2.85
2023-02-11T12:59:33.512Z,2.71
2023-02-11T13:02:01.798Z,2.92
2023-02-11T13:04:38.965Z,2.15
2023-02-11T13:07:14.132Z,3.01
2023-02-11T13:09:49.158Z,3.72
2023-02-11T13:12:35.514Z,3.40
2023-02-11T13:15:05.978Z,3.90
2023-02-11T13:17:54.432Z,3.12
2023-02-11T13:20:37.241Z,3.58
2023-02-11T13:23:31.415Z,2.80
2023-02-11T13:26:20.687Z,3.82
2023-02-11T13:29:14.883Z,4.64
2023-02-11T13:31:42.702Z,4.46
2023-02-11T13:34:27.461Z,4.14
2023-02-11T13:36:56.095Z,4.14
2023-02-11T13:39:23.858Z,4.37
2023-02-11T13:41:52.893Z,4.49
2023-02-11T13:44:23.702Z,4.62
2023-02-11T13:46:59.740Z,4.17
2023-02-11T13:49:40.679Z,4.74
2023-02-11T13:52:28.858Z,4.75
2023-02-11T13:55:15.076Z,4.16
2023-02-11T13:57:43.120Z,4.67
2023-02-11T14:00:29.604Z,4.45
2023-02-11T14:03:31.074Z,4.37
2023-02-11T14:06:26.678Z,3.64
2023-02-11T14:09:09.750Z,4.41
2023-02-11T14:11:42.322Z,4.09
2023-02-11T14:14:17.573Z,4.54
2023-02-11T14:17:04.653Z,4.34
2023-02-11T14:19:36.162Z,4.09
2023-02-11T14:22:13.604Z,4.60
2023-02-11T14:24:46.945Z,4.84
2023-02-11T14:27:21.414Z,4.50
2023-02-11T14:30:30.516Z,4.65
2023-02-11T14:33:26.930Z,4.60
2023-02-11T14:36:20.102Z,4.85
2023-02-11T14:39:33.018Z,5.10
2023-02-11T14:42:00.804Z,5.03
2023-02-11T14:44:30.130Z,4.94
2023-02-11T14:46:58.131Z,4.93
2023-02-11T14:49:39.445Z,5.01
2023-02-11T14:52:23.340Z,4.76
2023-02-11T14:54:51.580Z,4.38
2023-02-11T14:57:20.028Z,4.26
2023-02-11T15:00:02.882Z,3.93
2023-02-11T15:02:35.597Z,4.08
2023-02-11T15:05:26.948Z,4.26
2023-02-11T15:08:04.340Z,3.94
2023-02-11T15:10:41.481Z,4.09
2023-02-11T15:13:09.254Z,3.88
2023-02-11T15:15:37.777Z,3.12
2023-02-11T15:18:05.588Z,3.47
2023-02-11T15:20:34.057Z,3.42
2023-02-11T15:23:03.448Z,3.51
2023-02-11T15:25:33.803Z,3.49
2023-02-11T15:28:02.306Z,3.14
2023-02-11T15:30:32.081Z,3.10
2023-02-11T15:33:02.917Z,3.27
2023-02-11T15:35:38.090Z,3.37
2023-02-11T15:38:05.862Z,3.13
2023-02-11T15:40:36.976Z,3.07
2023-02-11T15:43:06.538Z,2.60
2023-02-11T15:45:39.467Z,2.07
2023-02-11T15:48:14.151Z,2.50
2023-02-11T15:50:42.390Z,2.15
2023-02-11T15:53:20.272Z,1.99
2023-02-11T15:55:49.322Z,1.88
2023-02-11T15:58:17.019Z,2.10
2023-02-11T16:00:49.809Z,2.25
2023-02-11T16:03:22.491Z,2.04
2023-02-11T16:05:50.436Z,2.15
2023-02-11T16:08:25.149Z,1.85
2023-02-11T16:11:03.390Z,1.69
2023-02-11T16:13:34.157Z,1.68
2023-02-11T16:16:05.100Z,1.87
2023-02-11T16:18:52.070Z,1.87
2023-02-11T16:21:39.245Z,1.40
2023-02-11T16:24:07.530Z,1.06
2023-02-11T16:26:39.213Z,1.07
2023-02-11T16:29:10.477Z,0.83
2023-02-11T16:31:40.341Z,0.22
2023-02-11T16:34:26.335Z,0.85
2023-02-11T16:36:54.156Z,0.49
2023-02-11T16:39:22.534Z,0.57
2023-02-11T16:41:50.888Z,0.21
2023-02-11T16:44:18.644Z,-0.58
2023-02-11T16:46:46.520Z,-0.11
2023-02-11T16:49:25.836Z,-1.00
2023-02-11T16:51:56.926Z,-1.79
2023-02-11T16:54:24.657Z,-0.67
2023-02-11T16:56:52.345Z,-0.52
2023-02-11T16:59:20.343Z,-0.35
2023-02-11T17:01:48.139Z,-0.31
2023-02-11T17:04:25.436Z,-0.39
2023-02-11T17:06:53.327Z,-0.63
2023-02-11T17:09:23.190Z,-0.74
2023-02-11T17:11:51.079Z,-1.22
2023-02-11T17:14:19.253Z,-1.30
2023-02-11T17:16:47.565Z,-1.01
2023-02-11T17:19:16.877Z,-0.73
2023-02-11T17:21:45.245Z,-1.19
2023-02-11T17:24:14.290Z,-1.08
2023-02-11T17:26:42.542Z,-1.18
2023-02-11T17:29:12.132Z,-0.81
2023-02-11T17:31:40.312Z,-0.91
2023-02-11T17:34:08.365Z,-1.14
2023-02-11T17:36:36.689Z,-1.16
2023-02-11T17:39:07.684Z,-1.07
2023-02-11T17:41:39.210Z,-1.14
2023-02-11T17:44:07.432Z,-2.03
2023-02-11T17:46:35.388Z,-1.36
2023-02-11T17:49:03.571Z,-1.17
2023-02-11T17:51:33.197Z,-1.08
2023-02-11T17:54:02.540Z,-1.45
2023-02-11T17:56:32.050Z,-1.16
2023-02-11T17:58:59.751Z,-1.68
2023-02-11T18:01:28.075Z,-1.18
2023-02-11T18:03:55.761Z,-1.07
2023-02-11T18:06:23.547Z,-0.91
2023-02-11T18:08:51.372Z,-0.62
2023-02-11T18:11:19.395Z,-1.12
2023-02-11T18:13:54.348Z,-1.44
2023-02-11T18:16:23.338Z,-0.94
2023-02-11T18:18:51.231Z,-0.80
2023-02-11T18:21:20.396Z,-0.73
2023-02-11T18:23:50.355Z,-0.48
2023-02-11T18:26:18.964Z,-0.62
2023-02-11T18:28:46.903Z,-0.50
2023-02-11T18:31:15.776Z,-0.43
2023-02-11T18:33:43.806Z,-0.39
2023-02-11T18:36:13.180Z,-0.52
2023-02-11T18:38:44.264Z,-0.90
2023-02-11T18:41:12.562Z,-0.76
2023-02-11T18:43:40.306Z,-0.75
2023-02-11T18:46:11.847Z,-1.02
2023-02-11T18:48:40.075Z,-1.13
2023-02-11T18:51:13.329Z,-0.92
2023-02-11T18:53:41.111Z,-1.03
2023-02-11T18:56:18.281Z,-1.15
2023-02-11T18:58:46.341Z,-1.10
2023-02-11T19:01:20.635Z,-1.08
2023-02-11T19:03:48.695Z,-1.30
2023-02-11T19:06:17.908Z,-1.24
2023-02-11T19:08:46.040Z,-1.08
2023-02-11T19:11:17.963Z,-1.18
2023-02-11T19:13:48.685Z,-1.13
2023-02-11T19:16:20.680Z,-1.09
2023-02-11T19:18:48.493Z,-0.90
2023-02-11T19:21:16.766Z,-0.96
2023-02-11T19:23:44.459Z,-1.58
2023-02-11T19:26:13.609Z,-1.21
2023-02-11T19:28:42.836Z,-1.36
2023-02-11T19:31:10.703Z,-1.13
2023-02-11T19:33:39.186Z,-1.12
2023-02-11T19:36:08.177Z,-1.49
2023-02-11T19:38:38.009Z,-1.49
2023-02-11T19:41:05.709Z,-2.00
2023-02-11T19:43:33.412Z,-1.54
2023-02-11T19:46:04.521Z,-1.59
2023-02-11T19:48:32.305Z,-1.68
2023-02-11T19:51:13.136Z,-1.82
2023-02-11T19:53:41.784Z,-1.65
2023-02-11T19:56:09.980Z,-1.33
2023-02-11T19:58:38.249Z,-1.36
2023-02-11T20:01:11.245Z,-1.54
2023-02-11T20:03:41.442Z,-1.77
2023-02-11T20:06:15.054Z,-1.99
2023-02-11T20:08:43.878Z,-1.86
2023-02-11T20:11:34.745Z,-1.73
2023-02-11T20:14:03.843Z,-2.08
2023-02-11T20:16:46.932Z,-1.97
2023-02-11T20:19:21.530Z,-2.25
2023-02-11T20:21:51.790Z,-2.02
2023-02-11T20:24:20.863Z,-1.90
2023-02-11T20:26:48.930Z,-1.59
2023-02-11T20:29:17.128Z,-2.01
2023-02-11T20:31:45.716Z,-2.12
2023-02-11T20:34:17.009Z,-2.35
2023-02-11T20:36:52.374Z,-2.59
2023-02-11T20:39:25.174Z,-2.90
2023-02-11T20:41:53.824Z,-2.62
2023-02-11T20:44:22.371Z,-2.44
2023-02-11T20:46:50.783Z,-2.18
2023-02-11T20:49:21.074Z,-2.09
2023-02-11T20:51:49.406Z,-1.95
2023-02-11T20:54:20.992Z,-2.06
2023-02-11T20:56:50.747Z,-1.94
2023-02-11T20:59:18.840Z,-1.81
2023-02-11T21:01:53.388Z,-2.00
2023-02-11T21:04:26.197Z,-3.02
2023-02-11T21:06:56.272Z,-2.95
2023-02-11T21:09:27.529Z,-2.77
2023-02-11T21:11:55.896Z,-3.16
2023-02-11T21:14:23.979Z,-2.97
2023-02-11T21:16:51.937Z,-3.05
2023-02-11T21:19:20.486Z,-2.78
2023-02-11T21:21:49.647Z,-2.37
2023-02-11T21:24:17.480Z,-2.47
2023-02-11T21:26:45.234Z,-2.41
2023-02-11T21:29:15.017Z,-2.68
2023-02-11T21:31:44.654Z,-2.99
2023-02-11T21:34:12.993Z,-2.98
2023-02-11T21:36:41.150Z,-2.57
2023-02-11T21:39:09.047Z,-3.04
2023-02-11T21:41:36.741Z,-3.29
2023-02-11T21:44:04.451Z,-2.94
2023-02-11T21:46:32.194Z,-2.93
2023-02-11T21:49:00.465Z,-3.08
2023-02-11T21:51:28.353Z,-3.58
2023-02-11T21:53:59.132Z,-3.66
2023-02-11T21:56:28.179Z,-3.06
2023-02-11T21:58:56.990Z,-2.76
2023-02-11T22:01:26.616Z,-2.82
2023-02-11T22:03:54.508Z,-2.76
2023-02-11T22:06:26.396Z,-2.82
2023-02-11T22:08:54.869Z,-2.43
2023-02-11T22:11:22.627Z,-2.92
2023-02-11T22:13:55.224Z,-2.65
2023-02-11T22:16:23.407Z,-2.48
2023-02-11T22:18:51.522Z,-2.51
2023-02-11T22:21:21.566Z,-2.57
2023-02-11T22:23:51.435Z,-2.37
2023-02-11T22:26:21.315Z,-2.49
2023-02-11T22:28:52.156Z,-2.72
2023-02-11T22:31:28.762Z,-2.62
2023-02-11T22:33:57.261Z,-2.71
2023-02-11T22:36:27.141Z,-2.68
2023-02-11T22:38:55.298Z,-2.47
2023-02-11T22:41:23.083Z,-2.52
2023-02-11T22:43:52.037Z,-2.49
2023-02-11T22:46:21.992Z,-2.51
2023-02-11T22:48:51.632Z,-2.26
2023-02-11T22:51:22.293Z,-2.33
2023-02-11T22:53:54.248Z,-2.32
2023-02-11T22:56:22.403Z,-2.29
2023-02-11T22:58:50.753Z,-2.31
2023-02-11T23:01:18.708Z,-2.73
2023-02-11T23:03:47.005Z,-2.43
2023-02-11T23:06:14.810Z,-3.59
2023-02-11T23:08:43.768Z,-2.97
2023-02-11T23:11:16.437Z,-2.89
2023-02-11T23:13:44.707Z,-2.88
2023-02-11T23:16:19.060Z,-2.88
2023-02-11T23:18:48.083Z,-2.99
2023-02-11T23:21:26.464Z,-3.46
2023-02-11T23:23:56.457Z,-3.14
2023-02-11T23:26:24.329Z,-3.51
2023-02-11T23:28:52.214Z,-3.96
2023-02-11T23:31:23.439Z,-3.82
2023-02-11T23:33:51.450Z,-4.61
2023-02-11T23:36:20.659Z,-4.68
2023-02-11T23:38:49.412Z,-4.90
2023-02-11T23:41:20.086Z,-4.51
2023-02-11T23:43:53.236Z,-4.50
2023-02-11T23:46:22.272Z,-4.40
2023-02-11T23:48:50.904Z,-3.90
2023-02-11T23:51:19.900Z,-3.93
2023-02-11T23:53:49.382Z,-3.72
2023-02-11T23:56:19.584Z,-3.78
2023-02-11T23:58:49.423Z,-3.51
